sensor_id;sensor_type;location;lat;lon;timestamp;P1;durP1;ratioP1;P2;durP2;ratioP2
24259;SDS011;12384;48.112;18.418;2023-05-07T00:02:13;15.20;;;14.20;;
24259;SDS011;12384;48.112;18.418;2023-05-07T00:04:42;14.30;;;13.40;;
24259;SDS011;12384;48.112;18.418;2023-05-07T00:07:12;15.00;;;14.00;;
24259;SDS011;12384;48.112;18.418;2023-05-07T00:09:40;15.00;;;13.90;;
24259;SDS011;12384;48.112;18.418;2023-05-07T00:12:09;16.73;;;15.43;;
24259;SDS011;12384;48.112;18.418;2023-05-07T00:14:37;17.33;;;15.93;;
24259;SDS011;12384;48.112;18.418;2023-05-07T00:17:06;15.87;;;14.77;;
24259;SDS011;12384;48.112;18.418;2023-05-07T00:19:34;15.60;;;14.47;;
24259;SDS011;12384;48.112;18.418;2023-05-07T00:22:03;15.60;;;14.50;;
24259;SDS011;12384;48.112;18.418;2023-05-07T00:24:32;15.50;;;14.43;;
24259;SDS011;12384;48.112;18.418;2023-05-07T00:27:01;15.87;;;14.77;;
24259;SDS011;12384;48.112;18.418;2023-05-07T00:29:29;15.13;;;14.07;;
24259;SDS011;12384;48.112;18.418;2023-05-07T00:31:58;14.33;;;13.40;;
24259;SDS011;12384;48.112;18.418;2023-05-07T00:34:26;15.00;;;14.00;;
24259;SDS011;12384;48.112;18.418;2023-05-07T00:36:54;13.90;;;13.00;;
24259;SDS011;12384;48.112;18.418;2023-05-07T00:39:23;14.67;;;13.70;;
24259;SDS011;12384;48.112;18.418;2023-05-07T00:41:53;14.00;;;13.10;;
24259;SDS011;12384;48.112;18.418;2023-05-07T00:44:21;14.17;;;13.17;;
24259;SDS011;12384;48.112;18.418;2023-05-07T00:46:50;13.93;;;13.03;;
24259;SDS011;12384;48.112;18.418;2023-05-07T00:49:19;12.93;;;12.13;;
24259;SDS011;12384;48.112;18.418;2023-05-07T00:51:48;14.03;;;13.13;;
24259;SDS011;12384;48.112;18.418;2023-05-07T00:54:17;13.70;;;12.80;;
24259;SDS011;12384;48.112;18.418;2023-05-07T00:56:46;16.17;;;14.97;;
24259;SDS011;12384;48.112;18.418;2023-05-07T00:59:15;16.17;;;14.97;;
24259;SDS011;12384;48.112;18.418;2023-05-07T01:01:44;15.70;;;14.60;;
24259;SDS011;12384;48.112;18.418;2023-05-07T01:04:13;15.20;;;14.20;;
24259;SDS011;12384;48.112;18.418;2023-05-07T01:06:42;16.93;;;15.73;;
24259;SDS011;12384;48.112;18.418;2023-05-07T01:09:12;16.60;;;15.40;;
24259;SDS011;12384;48.112;18.418;2023-05-07T01:11:41;16.60;;;15.40;;
24259;SDS011;12384;48.112;18.418;2023-05-07T01:14:11;17.70;;;16.43;;
24259;SDS011;12384;48.112;18.418;2023-05-07T01:16:40;16.10;;;14.90;;
24259;SDS011;12384;48.112;18.418;2023-05-07T01:19:09;15.87;;;14.77;;
24259;SDS011;12384;48.112;18.418;2023-05-07T01:21:43;15.83;;;14.73;;
24259;SDS011;12384;48.112;18.418;2023-05-07T01:24:18;16.67;;;15.47;;
24259;SDS011;12384;48.112;18.418;2023-05-07T01:26:46;14.97;;;13.90;;
24259;SDS011;12384;48.112;18.418;2023-05-07T01:29:17;14.77;;;13.77;;
24259;SDS011;12384;48.112;18.418;2023-05-07T01:31:48;14.87;;;13.87;;
24259;SDS011;12384;48.112;18.418;2023-05-07T01:34:18;14.10;;;13.10;;
24259;SDS011;12384;48.112;18.418;2023-05-07T01:36:49;14.07;;;13.07;;
24259;SDS011;12384;48.112;18.418;2023-05-07T01:39:19;13.90;;;13.00;;
24259;SDS011;12384;48.112;18.418;2023-05-07T01:41:48;13.80;;;12.87;;
24259;SDS011;12384;48.112;18.418;2023-05-07T01:44:17;13.70;;;12.80;;
24259;SDS011;12384;48.112;18.418;2023-05-07T01:46:47;13.67;;;12.67;;
24259;SDS011;12384;48.112;18.418;2023-05-07T01:49:16;13.80;;;12.83;;
24259;SDS011;12384;48.112;18.418;2023-05-07T01:51:45;13.63;;;12.73;;
24259;SDS011;12384;48.112;18.418;2023-05-07T01:54:13;12.43;;;11.57;;
24259;SDS011;12384;48.112;18.418;2023-05-07T01:56:44;12.23;;;11.43;;
24259;SDS011;12384;48.112;18.418;2023-05-07T01:59:14;11.87;;;11.00;;
24259;SDS011;12384;48.112;18.418;2023-05-07T02:01:43;11.37;;;10.53;;
24259;SDS011;12384;48.112;18.418;2023-05-07T02:04:12;11.60;;;10.90;;
24259;SDS011;12384;48.112;18.418;2023-05-07T02:06:41;11.00;;;10.30;;
24259;SDS011;12384;48.112;18.418;2023-05-07T02:09:10;11.37;;;10.67;;
24259;SDS011;12384;48.112;18.418;2023-05-07T02:11:41;12.20;;;11.37;;
24259;SDS011;12384;48.112;18.418;2023-05-07T02:14:11;12.10;;;11.30;;
24259;SDS011;12384;48.112;18.418;2023-05-07T02:16:39;11.80;;;11.00;;
24259;SDS011;12384;48.112;18.418;2023-05-07T02:19:10;11.67;;;10.87;;
24259;SDS011;12384;48.112;18.418;2023-05-07T02:21:39;11.80;;;11.00;;
24259;SDS011;12384;48.112;18.418;2023-05-07T02:24:07;11.87;;;11.07;;
24259;SDS011;12384;48.112;18.418;2023-05-07T02:26:36;13.00;;;12.10;;
24259;SDS011;12384;48.112;18.418;2023-05-07T02:29:04;13.73;;;12.77;;
24259;SDS011;12384;48.112;18.418;2023-05-07T02:31:34;12.47;;;11.67;;
24259;SDS011;12384;48.112;18.418;2023-05-07T02:34:03;12.43;;;11.63;;
24259;SDS011;12384;48.112;18.418;2023-05-07T02:36:31;13.00;;;12.10;;
24259;SDS011;12384;48.112;18.418;2023-05-07T02:39:05;14.23;;;13.20;;
24259;SDS011;12384;48.112;18.418;2023-05-07T02:41:34;14.53;;;13.47;;
24259;SDS011;12384;48.112;18.418;2023-05-07T02:44:03;13.93;;;12.93;;
24259;SDS011;12384;48.112;18.418;2023-05-07T02:46:32;13.17;;;12.27;;
24259;SDS011;12384;48.112;18.418;2023-05-07T02:49:06;12.43;;;11.63;;
24259;SDS011;12384;48.112;18.418;2023-05-07T02:51:36;14.33;;;13.33;;
24259;SDS011;12384;48.112;18.418;2023-05-07T02:54:10;14.27;;;13.27;;
24259;SDS011;12384;48.112;18.418;2023-05-07T02:56:38;13.97;;;12.97;;
24259;SDS011;12384;48.112;18.418;2023-05-07T02:59:07;13.80;;;12.90;;
24259;SDS011;12384;48.112;18.418;2023-05-07T03:01:39;13.10;;;12.20;;
24259;SDS011;12384;48.112;18.418;2023-05-07T03:04:13;12.77;;;11.97;;
24259;SDS011;12384;48.112;18.418;2023-05-07T03:06:42;12.90;;;12.03;;
24259;SDS011;12384;48.112;18.418;2023-05-07T03:09:10;13.60;;;12.60;;
24259;SDS011;12384;48.112;18.418;2023-05-07T03:11:39;11.93;;;11.13;;
24259;SDS011;12384;48.112;18.418;2023-05-07T03:14:08;12.40;;;11.60;;
24259;SDS011;12384;48.112;18.418;2023-05-07T03:16:37;11.47;;;10.73;;
24259;SDS011;12384;48.112;18.418;2023-05-07T03:19:06;13.00;;;12.10;;
24259;SDS011;12384;48.112;18.418;2023-05-07T03:21:35;14.27;;;13.27;;
24259;SDS011;12384;48.112;18.418;2023-05-07T03:24:04;13.07;;;12.23;;
24259;SDS011;12384;48.112;18.418;2023-05-07T03:26:33;12.77;;;11.97;;
24259;SDS011;12384;48.112;18.418;2023-05-07T03:29:02;12.30;;;11.47;;
24259;SDS011;12384;48.112;18.418;2023-05-07T03:31:30;12.70;;;11.80;;
24259;SDS011;12384;48.112;18.418;2023-05-07T03:34:00;12.67;;;11.67;;
24259;SDS011;12384;48.112;18.418;2023-05-07T03:36:29;12.93;;;11.93;;
24259;SDS011;12384;48.112;18.418;2023-05-07T03:38:59;12.30;;;11.50;;
24259;SDS011;12384;48.112;18.418;2023-05-07T03:41:35;12.87;;;11.97;;
24259;SDS011;12384;48.112;18.418;2023-05-07T03:44:04;12.03;;;11.27;;
24259;SDS011;12384;48.112;18.418;2023-05-07T03:46:33;11.40;;;10.70;;
24259;SDS011;12384;48.112;18.418;2023-05-07T03:49:02;11.87;;;11.03;;
24259;SDS011;12384;48.112;18.418;2023-05-07T03:51:31;11.43;;;10.73;;
24259;SDS011;12384;48.112;18.418;2023-05-07T03:54:00;11.97;;;11.17;;
24259;SDS011;12384;48.112;18.418;2023-05-07T03:56:31;11.90;;;11.10;;
24259;SDS011;12384;48.112;18.418;2023-05-07T03:58:59;12.20;;;11.30;;
24259;SDS011;12384;48.112;18.418;2023-05-07T04:01:28;13.20;;;12.30;;
24259;SDS011;12384;48.112;18.418;2023-05-07T04:03:56;11.87;;;11.07;;
24259;SDS011;12384;48.112;18.418;2023-05-07T04:06:25;11.47;;;10.70;;
24259;SDS011;12384;48.112;18.418;2023-05-07T04:08:54;10.97;;;10.27;;
24259;SDS011;12384;48.112;18.418;2023-05-07T04:11:24;10.77;;;10.07;;
24259;SDS011;12384;48.112;18.418;2023-05-07T04:13:53;11.17;;;10.37;;
24259;SDS011;12384;48.112;18.418;2023-05-07T04:16:23;13.03;;;11.90;;
24259;SDS011;12384;48.112;18.418;2023-05-07T04:18:51;12.07;;;11.13;;
24259;SDS011;12384;48.112;18.418;2023-05-07T04:21:20;11.30;;;10.50;;
24259;SDS011;12384;48.112;18.418;2023-05-07T04:23:50;12.00;;;11.10;;
24259;SDS011;12384;48.112;18.418;2023-05-07T04:26:18;10.87;;;10.13;;
24259;SDS011;12384;48.112;18.418;2023-05-07T04:28:49;11.57;;;10.67;;
24259;SDS011;12384;48.112;18.418;2023-05-07T04:31:17;11.03;;;10.20;;
24259;SDS011;12384;48.112;18.418;2023-05-07T04:33:50;11.03;;;10.20;;
24259;SDS011;12384;48.112;18.418;2023-05-07T04:36:19;11.37;;;10.47;;
24259;SDS011;12384;48.112;18.418;2023-05-07T04:38:53;11.10;;;10.20;;
24259;SDS011;12384;48.112;18.418;2023-05-07T04:41:22;11.63;;;10.73;;
24259;SDS011;12384;48.112;18.418;2023-05-07T04:43:53;10.53;;;9.70;;
24259;SDS011;12384;48.112;18.418;2023-05-07T04:46:23;10.33;;;9.53;;
24259;SDS011;12384;48.112;18.418;2023-05-07T04:48:55;11.60;;;10.70;;
24259;SDS011;12384;48.112;18.418;2023-05-07T04:51:23;11.57;;;10.67;;
24259;SDS011;12384;48.112;18.418;2023-05-07T04:53:52;11.03;;;10.13;;
24259;SDS011;12384;48.112;18.418;2023-05-07T04:56:21;10.37;;;9.57;;
24259;SDS011;12384;48.112;18.418;2023-05-07T04:58:50;10.80;;;10.00;;
24259;SDS011;12384;48.112;18.418;2023-05-07T05:01:22;10.27;;;9.47;;
24259;SDS011;12384;48.112;18.418;2023-05-07T05:03:50;10.33;;;9.63;;
24259;SDS011;12384;48.112;18.418;2023-05-07T05:06:19;10.70;;;9.90;;
24259;SDS011;12384;48.112;18.418;2023-05-07T05:08:49;9.53;;;8.83;;
24259;SDS011;12384;48.112;18.418;2023-05-07T05:11:18;9.43;;;8.83;;
24259;SDS011;12384;48.112;18.418;2023-05-07T05:13:47;9.67;;;8.97;;
24259;SDS011;12384;48.112;18.418;2023-05-07T05:16:19;9.90;;;9.20;;
24259;SDS011;12384;48.112;18.418;2023-05-07T05:18:49;10.13;;;9.33;;
24259;SDS011;12384;48.112;18.418;2023-05-07T05:21:18;10.37;;;9.57;;
24259;SDS011;12384;48.112;18.418;2023-05-07T05:23:51;9.70;;;8.93;;
24259;SDS011;12384;48.112;18.418;2023-05-07T05:26:24;10.07;;;9.20;;
24259;SDS011;12384;48.112;18.418;2023-05-07T05:28:52;10.10;;;9.30;;
24259;SDS011;12384;48.112;18.418;2023-05-07T05:31:23;11.70;;;10.60;;
24259;SDS011;12384;48.112;18.418;2023-05-07T05:33:53;11.73;;;10.83;;
24259;SDS011;12384;48.112;18.418;2023-05-07T05:36:22;12.70;;;11.70;;
24259;SDS011;12384;48.112;18.418;2023-05-07T05:38:53;11.43;;;10.50;;
24259;SDS011;12384;48.112;18.418;2023-05-07T05:41:23;12.10;;;11.00;;
24259;SDS011;12384;48.112;18.418;2023-05-07T05:43:51;11.37;;;10.47;;
24259;SDS011;12384;48.112;18.418;2023-05-07T05:46:21;10.63;;;9.63;;
24259;SDS011;12384;48.112;18.418;2023-05-07T05:48:50;10.73;;;9.83;;
24259;SDS011;12384;48.112;18.418;2023-05-07T05:51:20;10.43;;;9.63;;
24259;SDS011;12384;48.112;18.418;2023-05-07T05:53:50;10.83;;;9.83;;
24259;SDS011;12384;48.112;18.418;2023-05-07T05:56:19;11.27;;;10.47;;
24259;SDS011;12384;48.112;18.418;2023-05-07T05:58:47;12.10;;;11.17;;
24259;SDS011;12384;48.112;18.418;2023-05-07T06:01:17;11.83;;;10.93;;
24259;SDS011;12384;48.112;18.418;2023-05-07T06:03:48;12.30;;;11.40;;
24259;SDS011;12384;48.112;18.418;2023-05-07T06:06:18;12.40;;;11.50;;
24259;SDS011;12384;48.112;18.418;2023-05-07T06:08:46;12.27;;;11.40;;
24259;SDS011;12384;48.112;18.418;2023-05-07T06:11:20;12.47;;;11.57;;
24259;SDS011;12384;48.112;18.418;2023-05-07T06:13:49;13.07;;;12.07;;
24259;SDS011;12384;48.112;18.418;2023-05-07T06:16:17;12.80;;;11.90;;
24259;SDS011;12384;48.112;18.418;2023-05-07T06:18:47;12.70;;;11.80;;
24259;SDS011;12384;48.112;18.418;2023-05-07T06:21:17;11.87;;;11.00;;
24259;SDS011;12384;48.112;18.418;2023-05-07T06:23:47;11.33;;;10.43;;
24259;SDS011;12384;48.112;18.418;2023-05-07T06:26:15;10.47;;;9.70;;
24259;SDS011;12384;48.112;18.418;2023-05-07T06:28:46;9.53;;;8.73;;
24259;SDS011;12384;48.112;18.418;2023-05-07T06:31:16;8.70;;;8.10;;
24259;SDS011;12384;48.112;18.418;2023-05-07T06:33:58;9.43;;;8.73;;
24259;SDS011;12384;48.112;18.418;2023-05-07T06:36:37;8.40;;;7.80;;
24259;SDS011;12384;48.112;18.418;2023-05-07T06:39:16;7.63;;;7.13;;
24259;SDS011;12384;48.112;18.418;2023-05-07T06:41:44;8.45;;;7.85;;
24259;SDS011;12384;48.112;18.418;2023-05-07T06:44:23;7.60;;;7.20;;
24259;SDS011;12384;48.112;18.418;2023-05-07T06:47:18;7.95;;;7.47;;
24259;SDS011;12384;48.112;18.418;2023-05-07T06:49:50;8.85;;;8.25;;
24259;SDS011;12384;48.112;18.418;2023-05-07T06:52:23;7.28;;;6.88;;
24259;SDS011;12384;48.112;18.418;2023-05-07T06:54:53;8.13;;;7.63;;
24259;SDS011;12384;48.112;18.418;2023-05-07T06:57:24;8.18;;;7.70;;
24259;SDS011;12384;48.112;18.418;2023-05-07T06:59:53;9.20;;;8.50;;
24259;SDS011;12384;48.112;18.418;2023-05-07T07:02:21;8.85;;;8.32;;
24259;SDS011;12384;48.112;18.418;2023-05-07T07:04:50;8.80;;;8.30;;
24259;SDS011;12384;48.112;18.418;2023-05-07T07:07:19;9.15;;;8.63;;
24259;SDS011;12384;48.112;18.418;2023-05-07T07:09:51;8.98;;;8.48;;
24259;SDS011;12384;48.112;18.418;2023-05-07T07:12:19;8.15;;;7.63;;
24259;SDS011;12384;48.112;18.418;2023-05-07T07:14:49;8.48;;;7.97;;
24259;SDS011;12384;48.112;18.418;2023-05-07T07:17:18;10.00;;;9.40;;
24259;SDS011;12384;48.112;18.418;2023-05-07T07:19:46;9.18;;;8.57;;
24259;SDS011;12384;48.112;18.418;2023-05-07T07:22:14;8.90;;;8.40;;
24259;SDS011;12384;48.112;18.418;2023-05-07T07:24:43;9.38;;;8.77;;
24259;SDS011;12384;48.112;18.418;2023-05-07T07:27:15;9.15;;;8.65;;
24259;SDS011;12384;48.112;18.418;2023-05-07T07:29:44;9.65;;;8.98;;
24259;SDS011;12384;48.112;18.418;2023-05-07T07:32:12;9.02;;;8.38;;
24259;SDS011;12384;48.112;18.418;2023-05-07T07:34:42;8.65;;;8.15;;
24259;SDS011;12384;48.112;18.418;2023-05-07T07:37:11;8.88;;;8.38;;
24259;SDS011;12384;48.112;18.418;2023-05-07T07:39:40;9.02;;;8.52;;
24259;SDS011;12384;48.112;18.418;2023-05-07T07:42:10;9.80;;;9.20;;
24259;SDS011;12384;48.112;18.418;2023-05-07T07:44:40;9.30;;;8.80;;
24259;SDS011;12384;48.112;18.418;2023-05-07T07:47:11;9.32;;;8.82;;
24259;SDS011;12384;48.112;18.418;2023-05-07T07:49:41;9.43;;;8.88;;
24259;SDS011;12384;48.112;18.418;2023-05-07T07:52:10;9.20;;;8.70;;
24259;SDS011;12384;48.112;18.418;2023-05-07T07:54:41;8.98;;;8.48;;
24259;SDS011;12384;48.112;18.418;2023-05-07T07:57:10;9.40;;;8.90;;
24259;SDS011;12384;48.112;18.418;2023-05-07T07:59:39;9.90;;;9.40;;
24259;SDS011;12384;48.112;18.418;2023-05-07T08:02:11;9.88;;;9.38;;
24259;SDS011;12384;48.112;18.418;2023-05-07T08:04:40;9.60;;;9.10;;
24259;SDS011;12384;48.112;18.418;2023-05-07T08:07:10;9.75;;;9.25;;
24259;SDS011;12384;48.112;18.418;2023-05-07T08:09:42;9.27;;;8.77;;
24259;SDS011;12384;48.112;18.418;2023-05-07T08:12:11;9.32;;;8.82;;
24259;SDS011;12384;48.112;18.418;2023-05-07T08:14:41;9.23;;;8.73;;
24259;SDS011;12384;48.112;18.418;2023-05-07T08:17:10;10.90;;;10.20;;
24259;SDS011;12384;48.112;18.418;2023-05-07T08:19:39;10.80;;;10.10;;
24259;SDS011;12384;48.112;18.418;2023-05-07T08:22:10;9.68;;;9.13;;
24259;SDS011;12384;48.112;18.418;2023-05-07T08:24:39;9.65;;;9.15;;
24259;SDS011;12384;48.112;18.418;2023-05-07T08:27:08;9.30;;;8.80;;
24259;SDS011;12384;48.112;18.418;2023-05-07T08:29:39;9.77;;;9.18;;
24259;SDS011;12384;48.112;18.418;2023-05-07T08:32:10;9.40;;;8.90;;
24259;SDS011;12384;48.112;18.418;2023-05-07T08:34:38;9.50;;;9.00;;
24259;SDS011;12384;48.112;18.418;2023-05-07T08:37:07;9.23;;;8.63;;
24259;SDS011;12384;48.112;18.418;2023-05-07T08:39:36;9.40;;;8.90;;
24259;SDS011;12384;48.112;18.418;2023-05-07T08:42:10;9.20;;;8.70;;
24259;SDS011;12384;48.112;18.418;2023-05-07T08:44:41;9.07;;;8.57;;
24259;SDS011;12384;48.112;18.418;2023-05-07T08:47:18;8.02;;;7.60;;
24259;SDS011;12384;48.112;18.418;2023-05-07T08:49:50;8.68;;;7.93;;
24259;SDS011;12384;48.112;18.418;2023-05-07T08:52:19;9.30;;;8.70;;
24259;SDS011;12384;48.112;18.418;2023-05-07T08:54:48;9.45;;;8.95;;
24259;SDS011;12384;48.112;18.418;2023-05-07T08:57:17;10.80;;;10.20;;
24259;SDS011;12384;48.112;18.418;2023-05-07T08:59:46;10.27;;;9.75;;
24259;SDS011;12384;48.112;18.418;2023-05-07T09:02:15;10.40;;;9.80;;
24259;SDS011;12384;48.112;18.418;2023-05-07T09:04:46;10.52;;;9.93;;
24259;SDS011;12384;48.112;18.418;2023-05-07T09:07:15;10.82;;;10.23;;
24259;SDS011;12384;48.112;18.418;2023-05-07T09:09:45;10.90;;;10.25;;
24259;SDS011;12384;48.112;18.418;2023-05-07T09:12:14;11.60;;;10.90;;
24259;SDS011;12384;48.112;18.418;2023-05-07T09:14:43;11.30;;;10.65;;
24259;SDS011;12384;48.112;18.418;2023-05-07T09:17:12;11.88;;;11.18;;
24259;SDS011;12384;48.112;18.418;2023-05-07T09:19:41;11.73;;;11.02;;
24259;SDS011;12384;48.112;18.418;2023-05-07T09:22:15;11.18;;;10.57;;
24259;SDS011;12384;48.112;18.418;2023-05-07T09:24:53;11.73;;;11.02;;
24259;SDS011;12384;48.112;18.418;2023-05-07T09:27:25;11.65;;;10.95;;
24259;SDS011;12384;48.112;18.418;2023-05-07T09:29:55;10.23;;;9.63;;
24259;SDS011;12384;48.112;18.418;2023-05-07T09:32:24;10.63;;;9.93;;
24259;SDS011;12384;48.112;18.418;2023-05-07T09:34:54;10.90;;;10.10;;
24259;SDS011;12384;48.112;18.418;2023-05-07T09:37:25;10.00;;;9.40;;
24259;SDS011;12384;48.112;18.418;2023-05-07T09:39:54;9.93;;;9.43;;
24259;SDS011;12384;48.112;18.418;2023-05-07T09:42:24;11.07;;;10.27;;
24259;SDS011;12384;48.112;18.418;2023-05-07T09:44:56;10.45;;;9.85;;
24259;SDS011;12384;48.112;18.418;2023-05-07T09:47:28;10.60;;;10.00;;
24259;SDS011;12384;48.112;18.418;2023-05-07T09:50:03;9.68;;;9.07;;
24259;SDS011;12384;48.112;18.418;2023-05-07T09:52:36;9.70;;;9.00;;
24259;SDS011;12384;48.112;18.418;2023-05-07T09:55:08;10.85;;;10.15;;
24259;SDS011;12384;48.112;18.418;2023-05-07T09:57:37;9.90;;;9.30;;
24259;SDS011;12384;48.112;18.418;2023-05-07T10:00:08;10.60;;;10.00;;
24259;SDS011;12384;48.112;18.418;2023-05-07T10:02:48;9.98;;;9.25;;
24259;SDS011;12384;48.112;18.418;2023-05-07T10:05:31;10.50;;;9.90;;
24259;SDS011;12384;48.112;18.418;2023-05-07T10:08:02;9.90;;;9.30;;
24259;SDS011;12384;48.112;18.418;2023-05-07T10:10:35;9.63;;;9.02;;
24259;SDS011;12384;48.112;18.418;2023-05-07T10:13:08;9.93;;;9.32;;
24259;SDS011;12384;48.112;18.418;2023-05-07T10:15:42;9.45;;;8.95;;
24259;SDS011;12384;48.112;18.418;2023-05-07T10:18:11;9.23;;;8.73;;
24259;SDS011;12384;48.112;18.418;2023-05-07T10:20:45;9.77;;;9.18;;
24259;SDS011;12384;48.112;18.418;2023-05-07T10:23:19;9.95;;;9.15;;
24259;SDS011;12384;48.112;18.418;2023-05-07T10:25:56;9.40;;;8.90;;
24259;SDS011;12384;48.112;18.418;2023-05-07T10:28:30;9.32;;;8.80;;
24259;SDS011;12384;48.112;18.418;2023-05-07T10:31:08;10.20;;;9.70;;
24259;SDS011;12384;48.112;18.418;2023-05-07T10:33:47;9.93;;;9.27;;
24259;SDS011;12384;48.112;18.418;2023-05-07T10:36:21;9.65;;;9.05;;
24259;SDS011;12384;48.112;18.418;2023-05-07T10:38:53;9.75;;;9.10;;
24259;SDS011;12384;48.112;18.418;2023-05-07T10:41:23;10.48;;;9.77;;
24259;SDS011;12384;48.112;18.418;2023-05-07T10:43:52;10.27;;;9.68;;
24259;SDS011;12384;48.112;18.418;2023-05-07T10:46:28;10.45;;;9.85;;
24259;SDS011;12384;48.112;18.418;2023-05-07T10:49:07;9.90;;;9.38;;
24259;SDS011;12384;48.112;18.418;2023-05-07T10:54:42;10.43;;;9.82;;
24259;SDS011;12384;48.112;18.418;2023-05-07T11:00:40;10.80;;;10.10;;
24259;SDS011;12384;48.112;18.418;2023-05-07T11:03:18;10.60;;;10.00;;
24259;SDS011;12384;48.112;18.418;2023-05-07T11:06:09;10.20;;;9.50;;
24259;SDS011;12384;48.112;18.418;2023-05-07T11:08:53;10.25;;;9.65;;
24259;SDS011;12384;48.112;18.418;2023-05-07T11:11:46;10.48;;;9.88;;
24259;SDS011;12384;48.112;18.418;2023-05-07T11:14:44;11.20;;;10.40;;
24259;SDS011;12384;48.112;18.418;2023-05-07T11:17:18;11.05;;;10.45;;
24259;SDS011;12384;48.112;18.418;2023-05-07T11:19:54;10.57;;;9.98;;
24259;SDS011;12384;48.112;18.418;2023-05-07T11:22:35;10.45;;;9.85;;
24259;SDS011;12384;48.112;18.418;2023-05-07T11:25:18;10.52;;;9.82;;
24259;SDS011;12384;48.112;18.418;2023-05-07T11:27:55;10.68;;;9.98;;
24259;SDS011;12384;48.112;18.418;2023-05-07T11:30:31;10.30;;;9.73;;
24259;SDS011;12384;48.112;18.418;2023-05-07T11:33:01;10.05;;;9.45;;
24259;SDS011;12384;48.112;18.418;2023-05-07T11:35:30;10.23;;;9.52;;
24259;SDS011;12384;48.112;18.418;2023-05-07T11:38:03;10.40;;;9.77;;
24259;SDS011;12384;48.112;18.418;2023-05-07T11:40:33;10.40;;;9.80;;
24259;SDS011;12384;48.112;18.418;2023-05-07T11:43:11;10.82;;;10.13;;
24259;SDS011;12384;48.112;18.418;2023-05-07T11:45:39;9.57;;;9.07;;
24259;SDS011;12384;48.112;18.418;2023-05-07T11:48:08;10.50;;;9.80;;
24259;SDS011;12384;48.112;18.418;2023-05-07T11:50:36;10.23;;;9.63;;
24259;SDS011;12384;48.112;18.418;2023-05-07T11:53:19;9.85;;;9.25;;
24259;SDS011;12384;48.112;18.418;2023-05-07T11:55:47;9.75;;;9.25;;
24259;SDS011;12384;48.112;18.418;2023-05-07T11:58:22;10.93;;;9.90;;
24259;SDS011;12384;48.112;18.418;2023-05-07T12:00:52;10.20;;;9.60;;
24259;SDS011;12384;48.112;18.418;2023-05-07T12:03:21;9.75;;;9.15;;
24259;SDS011;12384;48.112;18.418;2023-05-07T12:05:49;10.45;;;9.75;;
24259;SDS011;12384;48.112;18.418;2023-05-07T12:08:19;9.75;;;9.15;;
24259;SDS011;12384;48.112;18.418;2023-05-07T12:10:49;9.90;;;9.30;;
24259;SDS011;12384;48.112;18.418;2023-05-07T12:13:18;10.43;;;9.82;;
24259;SDS011;12384;48.112;18.418;2023-05-07T12:15:51;10.10;;;9.48;;
24259;SDS011;12384;48.112;18.418;2023-05-07T12:18:20;10.35;;;9.63;;
24259;SDS011;12384;48.112;18.418;2023-05-07T12:20:49;10.35;;;9.77;;
24259;SDS011;12384;48.112;18.418;2023-05-07T12:23:18;9.88;;;9.38;;
24259;SDS011;12384;48.112;18.418;2023-05-07T12:25:48;10.68;;;10.07;;
24259;SDS011;12384;48.112;18.418;2023-05-07T12:28:17;10.70;;;10.10;;
24259;SDS011;12384;48.112;18.418;2023-05-07T12:30:47;9.82;;;9.27;;
24259;SDS011;12384;48.112;18.418;2023-05-07T12:33:23;9.40;;;8.90;;
24259;SDS011;12384;48.112;18.418;2023-05-07T12:35:53;10.32;;;9.57;;
24259;SDS011;12384;48.112;18.418;2023-05-07T12:38:22;10.07;;;9.57;;
24259;SDS011;12384;48.112;18.418;2023-05-07T12:40:53;10.50;;;9.90;;
24259;SDS011;12384;48.112;18.418;2023-05-07T12:43:24;9.75;;;9.25;;
24259;SDS011;12384;48.112;18.418;2023-05-07T12:45:55;9.88;;;9.38;;
24259;SDS011;12384;48.112;18.418;2023-05-07T12:48:27;10.73;;;10.02;;
24259;SDS011;12384;48.112;18.418;2023-05-07T12:50:56;9.52;;;8.95;;
24259;SDS011;12384;48.112;18.418;2023-05-07T12:53:25;10.20;;;9.60;;
24259;SDS011;12384;48.112;18.418;2023-05-07T12:55:55;10.07;;;9.48;;
24259;SDS011;12384;48.112;18.418;2023-05-07T12:58:26;10.23;;;9.65;;
24259;SDS011;12384;48.112;18.418;2023-05-07T13:00:56;10.30;;;9.80;;
24259;SDS011;12384;48.112;18.418;2023-05-07T13:03:29;10.30;;;9.73;;
24259;SDS011;12384;48.112;18.418;2023-05-07T13:05:59;9.50;;;9.00;;
24259;SDS011;12384;48.112;18.418;2023-05-07T13:08:30;10.02;;;9.27;;
24259;SDS011;12384;48.112;18.418;2023-05-07T13:11:00;9.90;;;9.40;;
24259;SDS011;12384;48.112;18.418;2023-05-07T13:13:30;9.57;;;9.07;;
24259;SDS011;12384;48.112;18.418;2023-05-07T13:15:59;9.95;;;9.27;;
24259;SDS011;12384;48.112;18.418;2023-05-07T13:18:30;8.63;;;8.13;;
24259;SDS011;12384;48.112;18.418;2023-05-07T13:21:00;9.70;;;9.20;;
24259;SDS011;12384;48.112;18.418;2023-05-07T13:23:29;9.45;;;8.77;;
24259;SDS011;12384;48.112;18.418;2023-05-07T13:25:57;9.05;;;8.55;;
24259;SDS011;12384;48.112;18.418;2023-05-07T13:28:32;8.52;;;8.02;;
24259;SDS011;12384;48.112;18.418;2023-05-07T13:31:00;9.18;;;8.57;;
24259;SDS011;12384;48.112;18.418;2023-05-07T13:33:30;9.45;;;8.95;;
24259;SDS011;12384;48.112;18.418;2023-05-07T13:35:59;9.48;;;8.98;;
24259;SDS011;12384;48.112;18.418;2023-05-07T13:38:28;8.93;;;8.45;;
24259;SDS011;12384;48.112;18.418;2023-05-07T13:40:57;8.70;;;8.20;;
24259;SDS011;12384;48.112;18.418;2023-05-07T13:43:26;9.00;;;8.50;;
24259;SDS011;12384;48.112;18.418;2023-05-07T13:45:54;8.65;;;8.20;;
24259;SDS011;12384;48.112;18.418;2023-05-07T13:48:23;8.45;;;8.05;;
24259;SDS011;12384;48.112;18.418;2023-05-07T13:50:52;9.18;;;8.68;;
24259;SDS011;12384;48.112;18.418;2023-05-07T13:53:21;9.57;;;9.07;;
24259;SDS011;12384;48.112;18.418;2023-05-07T13:55:50;9.15;;;8.65;;
24259;SDS011;12384;48.112;18.418;2023-05-07T13:58:18;9.65;;;9.13;;
24259;SDS011;12384;48.112;18.418;2023-05-07T14:00:47;9.55;;;9.05;;
24259;SDS011;12384;48.112;18.418;2023-05-07T14:03:15;9.43;;;8.93;;
24259;SDS011;12384;48.112;18.418;2023-05-07T14:05:44;9.40;;;8.90;;
24259;SDS011;12384;48.112;18.418;2023-05-07T14:08:17;9.68;;;9.15;;
24259;SDS011;12384;48.112;18.418;2023-05-07T14:10:46;9.68;;;9.18;;
24259;SDS011;12384;48.112;18.418;2023-05-07T14:13:14;9.55;;;9.05;;
24259;SDS011;12384;48.112;18.418;2023-05-07T14:15:43;9.50;;;8.90;;
24259;SDS011;12384;48.112;18.418;2023-05-07T14:18:13;9.80;;;9.30;;
24259;SDS011;12384;48.112;18.418;2023-05-07T14:20:42;9.90;;;9.30;;
24259;SDS011;12384;48.112;18.418;2023-05-07T14:23:13;9.68;;;9.18;;
24259;SDS011;12384;48.112;18.418;2023-05-07T14:25:42;9.77;;;9.27;;
24259;SDS011;12384;48.112;18.418;2023-05-07T14:28:12;9.95;;;9.35;;
24259;SDS011;12384;48.112;18.418;2023-05-07T14:30:41;9.80;;;9.30;;
24259;SDS011;12384;48.112;18.418;2023-05-07T14:33:09;9.80;;;9.30;;
24259;SDS011;12384;48.112;18.418;2023-05-07T14:35:38;9.98;;;9.48;;
24259;SDS011;12384;48.112;18.418;2023-05-07T14:38:06;10.20;;;9.70;;
24259;SDS011;12384;48.112;18.418;2023-05-07T14:40:34;10.67;;;9.97;;
24259;SDS011;12384;48.112;18.418;2023-05-07T14:43:04;10.23;;;9.73;;
24259;SDS011;12384;48.112;18.418;2023-05-07T14:45:33;10.15;;;9.65;;
24259;SDS011;12384;48.112;18.418;2023-05-07T14:48:01;10.32;;;9.73;;